createdAt,value
2022-10-30T00:01:37.873Z,12.61
2022-10-30T00:04:04.729Z,12.57
2022-10-30T00:06:31.369Z,12.52
2022-10-30T00:08:57.949Z,12.49
2022-10-30T00:11:24.611Z,12.48
2022-10-30T00:13:51.330Z,12.45
2022-10-30T00:16:18.196Z,12.44
2022-10-30T00:18:44.831Z,12.41
2022-10-30T00:21:14.291Z,12.37
2022-10-30T00:23:52.283Z,12.30
2022-10-30T00:26:20.723Z,12.26
2022-10-30T00:28:55.179Z,12.26
2022-10-30T00:31:22.559Z,12.26
2022-10-30T00:33:54.082Z,12.31
2022-10-30T00:36:21.610Z,12.36
2022-10-30T00:38:48.399Z,12.42
2022-10-30T00:41:20.750Z,12.48
2022-10-30T00:43:48.369Z,12.48
2022-10-30T00:46:28.030Z,12.48
2022-10-30T00:48:59.399Z,12.44
2022-10-30T00:51:29.145Z,12.40
2022-10-30T00:53:59.435Z,12.38
2022-10-30T00:56:27.014Z,12.38
2022-10-30T00:59:05.520Z,12.39
2022-10-30T01:01:36.805Z,12.39
2022-10-30T01:04:06.782Z,12.38
2022-10-30T01:06:37.020Z,12.41
2022-10-30T01:09:04.359Z,12.43
2022-10-30T01:11:31.489Z,12.44
2022-10-30T01:14:03.378Z,12.42
2022-10-30T01:16:29.930Z,12.38
2022-10-30T01:19:26.478Z,12.32
2022-10-30T01:22:05.265Z,12.25
2022-10-30T01:24:55.675Z,12.18
2022-10-30T01:27:51.523Z,12.15
2022-10-30T01:30:36.493Z,12.16
2022-10-30T01:33:21.664Z,12.15
2022-10-30T01:36:04.689Z,12.12
2022-10-30T01:38:47.468Z,12.11
2022-10-30T01:41:14.171Z,12.13
2022-10-30T01:43:42.333Z,12.15
2022-10-30T01:46:42.162Z,12.16
2022-10-30T01:52:39.742Z,12.15
2022-10-30T01:55:33.700Z,12.11
2022-10-30T01:58:03.114Z,12.09
2022-10-30T02:00:29.782Z,12.07
2022-10-30T02:02:56.702Z,12.07
2022-10-30T02:05:33.625Z,12.07
2022-10-30T02:08:01.919Z,12.07
2022-10-30T02:10:30.637Z,12.07
2022-10-30T02:12:57.440Z,12.09
2022-10-30T02:15:24.376Z,12.13
2022-10-30T02:17:51.002Z,12.21
2022-10-30T02:20:19.206Z,12.26
2022-10-30T02:22:46.864Z,12.30
2022-10-30T02:25:14.455Z,12.32
2022-10-30T02:27:41.484Z,12.32
2022-10-30T02:30:08.755Z,12.34
2022-10-30T02:32:38.461Z,12.34
2022-10-30T02:35:05.577Z,12.33
2022-10-30T02:37:36.054Z,12.32
2022-10-30T02:40:04.290Z,12.32
2022-10-30T02:42:30.908Z,12.35
2022-10-30T02:44:57.573Z,12.39
2022-10-30T02:47:24.268Z,12.42
2022-10-30T02:49:50.923Z,12.47
2022-10-30T02:52:17.689Z,12.47
2022-10-30T02:54:44.263Z,12.47
2022-10-30T02:57:10.926Z,12.49
2022-10-30T02:59:37.625Z,12.50
2022-10-30T03:02:04.404Z,12.49
2022-10-30T03:04:31.131Z,12.50
2022-10-30T03:06:57.716Z,12.50
2022-10-30T03:09:24.306Z,12.50
2022-10-30T03:11:50.940Z,12.52
2022-10-30T03:14:17.625Z,12.53
2022-10-30T03:16:44.253Z,12.53
2022-10-30T03:19:11.068Z,12.51
2022-10-30T03:21:37.757Z,12.52
2022-10-30T03:24:04.754Z,12.52
2022-10-30T03:26:31.377Z,12.53
2022-10-30T03:28:57.973Z,12.54
2022-10-30T03:31:24.677Z,12.55
2022-10-30T03:33:51.387Z,12.55
2022-10-30T03:36:18.385Z,12.55
2022-10-30T03:38:45.007Z,12.54
2022-10-30T03:41:11.647Z,12.55
2022-10-30T03:43:38.346Z,12.57
2022-10-30T03:46:05.192Z,12.57
2022-10-30T03:48:31.991Z,12.56
2022-10-30T03:50:59.915Z,12.55
2022-10-30T03:53:28.609Z,12.55
2022-10-30T03:56:03.537Z,12.55
2022-10-30T03:58:30.777Z,12.55
2022-10-30T04:01:04.504Z,12.55
2022-10-30T04:03:31.273Z,12.57
2022-10-30T04:05:58.072Z,12.59
2022-10-30T04:08:24.712Z,12.61
2022-10-30T04:10:54.003Z,12.63
2022-10-30T04:13:20.706Z,12.65
2022-10-30T04:15:56.108Z,12.68
2022-10-30T04:18:25.027Z,12.68
2022-10-30T04:20:51.784Z,12.69
2022-10-30T04:23:20.076Z,12.75
2022-10-30T04:25:46.794Z,12.80
2022-10-30T04:28:14.278Z,12.81
2022-10-30T04:30:40.977Z,12.83
2022-10-30T04:33:11.470Z,12.83
2022-10-30T04:35:38.794Z,12.82
2022-10-30T04:38:08.718Z,12.81
2022-10-30T04:40:37.826Z,12.80
2022-10-30T04:43:05.197Z,12.78
2022-10-30T04:45:32.374Z,12.76
2022-10-30T04:48:08.066Z,12.76
2022-10-30T04:50:35.493Z,12.74
2022-10-30T04:53:04.388Z,12.73
2022-10-30T04:55:31.980Z,12.71
2022-10-30T04:58:00.402Z,12.72
2022-10-30T05:00:27.533Z,12.73
2022-10-30T05:03:01.264Z,12.74
2022-10-30T05:05:31.800Z,12.74
2022-10-30T05:07:59.086Z,12.71
2022-10-30T05:10:25.914Z,12.69
2022-10-30T05:12:56.201Z,12.66
2022-10-30T05:15:22.845Z,12.62
2022-10-30T05:17:53.791Z,12.54
2022-10-30T05:20:21.496Z,12.46
2022-10-30T05:22:55.504Z,12.36
2022-10-30T05:25:22.705Z,12.30
2022-10-30T05:27:49.417Z,12.26
2022-10-30T05:30:16.181Z,12.21
2022-10-30T05:32:42.896Z,12.18
2022-10-30T05:35:09.520Z,12.17
2022-10-30T05:37:36.297Z,12.16
2022-10-30T05:40:03.048Z,12.14
2022-10-30T05:42:29.617Z,12.13
2022-10-30T05:45:01.043Z,12.13
2022-10-30T05:47:28.615Z,12.12
2022-10-30T05:49:56.429Z,12.12
2022-10-30T05:52:23.064Z,12.10
2022-10-30T05:54:49.762Z,12.09
2022-10-30T05:57:16.371Z,12.07
2022-10-30T05:59:42.966Z,12.05
2022-10-30T06:02:09.659Z,12.04
2022-10-30T06:04:36.548Z,12.03
2022-10-30T06:07:03.185Z,12.04
2022-10-30T06:09:30.017Z,12.04
2022-10-30T06:11:56.789Z,12.03
2022-10-30T06:14:23.452Z,12.02
2022-10-30T06:16:50.397Z,12.00
2022-10-30T06:19:18.744Z,11.99
2022-10-30T06:21:46.591Z,11.97
2022-10-30T06:24:14.152Z,11.95
2022-10-30T06:26:41.096Z,11.94
2022-10-30T06:29:07.764Z,11.94
2022-10-30T06:31:34.434Z,11.93
2022-10-30T06:34:01.216Z,11.91
2022-10-30T06:36:27.907Z,11.89
2022-10-30T06:38:54.512Z,11.84
2022-10-30T06:41:24.626Z,11.78
2022-10-30T06:43:56.775Z,11.75
2022-10-30T06:46:25.798Z,11.69
2022-10-30T06:48:55.636Z,11.65
2022-10-30T06:51:22.612Z,11.58
2022-10-30T06:53:49.461Z,11.53
2022-10-30T06:56:16.186Z,11.49
2022-10-30T06:58:43.299Z,11.44
2022-10-30T07:01:10.034Z,11.40
2022-10-30T07:03:37.001Z,11.35
2022-10-30T07:06:03.873Z,11.33
2022-10-30T07:08:30.473Z,11.29
2022-10-30T07:10:58.705Z,11.26
2022-10-30T07:13:25.360Z,11.21
2022-10-30T07:15:53.028Z,11.20
2022-10-30T07:18:19.666Z,11.17
2022-10-30T07:20:46.340Z,11.17
2022-10-30T07:23:13.030Z,11.16
2022-10-30T07:25:39.608Z,11.15
2022-10-30T07:28:06.260Z,11.16
2022-10-30T07:30:32.912Z,11.15
2022-10-30T07:33:04.507Z,11.14
2022-10-30T07:35:32.705Z,11.12
2022-10-30T07:38:08.278Z,11.10
2022-10-30T07:40:34.907Z,11.09
2022-10-30T07:43:03.039Z,11.09
2022-10-30T07:45:30.653Z,11.08
2022-10-30T07:47:57.919Z,11.10
2022-10-30T07:50:25.153Z,11.11
2022-10-30T07:52:51.770Z,11.12
2022-10-30T07:55:18.489Z,11.16
2022-10-30T07:57:45.129Z,11.19
2022-10-30T08:00:14.056Z,11.22
2022-10-30T08:02:41.649Z,11.25
2022-10-30T08:05:09.500Z,11.30
2022-10-30T08:07:38.284Z,11.35
2022-10-30T08:10:05.795Z,11.37
2022-10-30T08:12:33.691Z,11.42
2022-10-30T08:15:00.923Z,11.45
2022-10-30T08:17:27.866Z,11.47
2022-10-30T08:19:55.442Z,11.48
2022-10-30T08:22:22.113Z,11.50
2022-10-30T08:24:48.916Z,11.51
2022-10-30T08:27:15.567Z,11.49
2022-10-30T08:29:42.352Z,11.49
2022-10-30T08:32:08.970Z,11.46
2022-10-30T08:34:35.738Z,11.48
2022-10-30T08:37:02.395Z,11.49
2022-10-30T08:39:29.019Z,11.50
2022-10-30T08:41:59.106Z,11.51
2022-10-30T08:44:26.081Z,11.54
2022-10-30T08:46:54.725Z,11.55
2022-10-30T08:49:21.352Z,11.57
2022-10-30T08:51:48.056Z,11.60
2022-10-30T08:54:14.723Z,11.62
2022-10-30T08:56:41.323Z,11.63
2022-10-30T08:59:08.046Z,11.67
2022-10-30T09:01:36.499Z,11.69
2022-10-30T09:04:03.702Z,11.74
2022-10-30T09:06:31.692Z,11.77
2022-10-30T09:08:58.350Z,11.83
2022-10-30T09:11:25.000Z,11.89
2022-10-30T09:13:51.607Z,11.96
2022-10-30T09:16:18.536Z,12.01
2022-10-30T09:18:45.122Z,12.08
2022-10-30T09:21:11.856Z,12.16
2022-10-30T09:23:38.642Z,12.22
2022-10-30T09:26:05.402Z,12.29
2022-10-30T09:28:32.002Z,12.35
2022-10-30T09:30:58.657Z,12.39
2022-10-30T09:33:25.355Z,12.40
2022-10-30T09:35:51.944Z,12.40
2022-10-30T09:38:18.579Z,12.41
2022-10-30T09:41:17.865Z,12.46
2022-10-30T09:44:04.516Z,12.51
2022-10-30T09:46:55.272Z,12.56
2022-10-30T09:49:39.336Z,12.59
2022-10-30T09:52:29.552Z,12.58
2022-10-30T09:54:56.229Z,12.57
2022-10-30T09:57:56.997Z,12.59
2022-10-30T10:00:33.531Z,12.60
2022-10-30T10:03:41.940Z,12.67
2022-10-30T10:06:16.375Z,12.76
2022-10-30T10:08:50.211Z,12.89
2022-10-30T10:11:25.725Z,12.92
2022-10-30T10:14:08.681Z,12.93
2022-10-30T10:16:40.653Z,12.97
2022-10-30T10:19:20.093Z,13.05
2022-10-30T10:21:53.273Z,13.13
2022-10-30T10:24:24.982Z,13.19
2022-10-30T10:26:57.720Z,13.22
2022-10-30T10:29:57.939Z,13.21
2022-10-30T10:32:52.487Z,13.14
2022-10-30T10:35:48.337Z,13.07
2022-10-30T10:38:24.117Z,13.03
2022-10-30T10:41:19.311Z,13.00
2022-10-30T10:44:07.005Z,12.96
2022-10-30T10:47:07.349Z,12.93
2022-10-30T10:49:47.898Z,12.92
2022-10-30T10:52:14.438Z,12.92
2022-10-30T10:54:45.382Z,12.94
2022-10-30T10:57:28.941Z,12.95
2022-10-30T11:00:05.037Z,12.96
2022-10-30T11:03:04.112Z,12.99
2022-10-30T11:05:39.342Z,13.00
2022-10-30T11:08:19.650Z,13.00
2022-10-30T11:10:55.865Z,13.03
2022-10-30T11:13:25.790Z,13.10
2022-10-30T11:16:02.301Z,13.29
2022-10-30T11:18:28.900Z,13.47
2022-10-30T11:21:08.455Z,13.48
2022-10-30T11:23:41.341Z,13.42
2022-10-30T11:26:23.082Z,13.40
2022-10-30T11:28:55.468Z,13.40
2022-10-30T11:31:24.046Z,13.38
2022-10-30T11:33:51.530Z,13.38
2022-10-30T11:36:22.961Z,13.37
2022-10-30T11:38:50.599Z,13.35
2022-10-30T11:41:18.181Z,13.35
2022-10-30T11:43:45.390Z,13.34
2022-10-30T11:46:20.842Z,13.33
2022-10-30T11:48:54.772Z,13.30
2022-10-30T11:51:39.696Z,13.24
2022-10-30T11:54:07.249Z,13.18
2022-10-30T11:56:35.649Z,13.15
2022-10-30T11:59:04.564Z,13.12
2022-10-30T12:01:37.342Z,13.08
2022-10-30T12:04:24.771Z,13.06
2022-10-30T12:07:08.188Z,13.04
2022-10-30T12:09:45.526Z,13.05
2022-10-30T12:12:34.837Z,13.07
2022-10-30T12:15:20.000Z,13.12
2022-10-30T12:18:01.862Z,13.20
2022-10-30T12:20:29.043Z,13.28
2022-10-30T12:22:56.225Z,13.38
2022-10-30T12:25:31.192Z,13.50
2022-10-30T12:28:06.877Z,13.58
2022-10-30T12:30:49.881Z,13.61
2022-10-30T12:33:23.173Z,13.56
2022-10-30T12:35:49.741Z,13.52
2022-10-30T12:38:26.891Z,13.51
2022-10-30T12:41:12.606Z,13.47
2022-10-30T12:43:42.503Z,13.45
2022-10-30T12:46:30.301Z,13.44
2022-10-30T12:49:02.428Z,13.40
2022-10-30T12:51:39.049Z,13.37
2022-10-30T12:54:12.955Z,13.39
2022-10-30T12:56:44.221Z,13.41
2022-10-30T12:59:29.216Z,13.50
2022-10-30T13:02:01.923Z,13.59
2022-10-30T13:04:36.517Z,13.61
2022-10-30T13:07:18.311Z,13.62
2022-10-30T13:10:12.789Z,13.56
2022-10-30T13:12:43.107Z,13.49
2022-10-30T13:15:12.849Z,13.51
2022-10-30T13:17:39.452Z,13.68
2022-10-30T13:20:13.972Z,13.84
2022-10-30T13:22:57.811Z,13.96
2022-10-30T13:25:44.608Z,14.07
2022-10-30T13:28:16.289Z,14.31
2022-10-30T13:30:57.080Z,14.47
2022-10-30T13:33:45.044Z,14.55
2022-10-30T13:36:15.319Z,14.57
2022-10-30T13:39:22.423Z,14.70
2022-10-30T13:42:10.570Z,14.79
2022-10-30T13:44:43.209Z,14.82
2022-10-30T13:47:21.780Z,14.88
2022-10-30T13:50:07.168Z,14.93
2022-10-30T13:52:38.086Z,14.89
2022-10-30T13:55:27.501Z,14.91
2022-10-30T13:57:57.167Z,14.92
2022-10-30T14:00:50.782Z,14.90
2022-10-30T14:03:51.587Z,14.78
2022-10-30T14:06:45.450Z,14.91
2022-10-30T14:09:27.136Z,14.88
2022-10-30T14:11:55.355Z,14.84
2022-10-30T14:14:31.590Z,14.90
2022-10-30T14:17:08.878Z,14.80
2022-10-30T14:20:13.727Z,14.61
2022-10-30T14:22:41.398Z,14.50
2022-10-30T14:25:15.997Z,14.44
2022-10-30T14:27:42.831Z,14.37
2022-10-30T14:30:28.781Z,14.31
2022-10-30T14:32:55.439Z,14.30
2022-10-30T14:35:34.328Z,14.37
2022-10-30T14:38:06.850Z,14.48
2022-10-30T14:40:51.753Z,14.47
2022-10-30T14:43:28.393Z,14.41
2022-10-30T14:46:05.552Z,14.36
2022-10-30T14:49:11.478Z,14.32
2022-10-30T14:51:44.646Z,14.23
2022-10-30T14:54:31.224Z,14.12
2022-10-30T14:56:57.970Z,14.04
2022-10-30T14:59:33.607Z,13.94
2022-10-30T15:02:15.548Z,13.90
2022-10-30T15:04:50.696Z,13.84
2022-10-30T15:07:41.610Z,13.81
2022-10-30T15:10:24.223Z,13.76
2022-10-30T15:13:05.293Z,13.72
2022-10-30T15:15:32.525Z,13.67
2022-10-30T15:18:03.596Z,13.64
2022-10-30T15:20:33.255Z,13.61
2022-10-30T15:23:14.137Z,13.64
2022-10-30T15:25:51.045Z,13.71
2022-10-30T15:31:01.312Z,13.77
2022-10-30T15:33:28.510Z,13.73
2022-10-30T15:35:55.178Z,13.71
2022-10-30T15:38:22.312Z,13.67
2022-10-30T15:40:49.578Z,13.63
2022-10-30T15:43:18.011Z,13.60
2022-10-30T15:45:47.419Z,13.57
2022-10-30T15:48:23.461Z,13.55
2022-10-30T15:51:03.002Z,13.50
2022-10-30T15:53:41.649Z,13.48
2022-10-30T15:56:21.137Z,13.43
2022-10-30T15:58:54.533Z,13.40
2022-10-30T16:01:39.723Z,13.37
2022-10-30T16:04:20.911Z,13.34
2022-10-30T16:07:00.548Z,13.30
2022-10-30T16:09:28.746Z,13.25
2022-10-30T16:11:58.467Z,13.23
2022-10-30T16:14:32.712Z,13.21
2022-10-30T16:17:00.515Z,13.20
2022-10-30T16:19:35.847Z,13.18
2022-10-30T16:22:02.532Z,13.14
2022-10-30T16:24:34.324Z,13.12
2022-10-30T16:27:19.661Z,13.06
2022-10-30T16:29:51.771Z,13.04
2022-10-30T16:32:22.369Z,13.01
2022-10-30T16:34:51.057Z,12.98
2022-10-30T16:37:19.523Z,12.94
2022-10-30T16:39:49.633Z,12.90
2022-10-30T16:42:24.163Z,12.86
2022-10-30T16:44:52.198Z,12.81
2022-10-30T16:47:18.741Z,12.80
2022-10-30T16:49:53.369Z,12.78
2022-10-30T16:52:25.195Z,12.74
2022-10-30T16:55:22.140Z,12.71
2022-10-30T16:57:57.411Z,12.68
2022-10-30T17:00:27.433Z,12.63
2022-10-30T17:02:58.251Z,12.62
2022-10-30T17:05:26.762Z,12.59
2022-10-30T17:08:01.515Z,12.58
2022-10-30T17:10:53.939Z,12.54
2022-10-30T17:13:29.621Z,12.49
2022-10-30T17:15:56.637Z,12.46
2022-10-30T17:18:31.485Z,12.43
2022-10-30T17:21:38.393Z,12.40
2022-10-30T17:24:05.749Z,12.40
2022-10-30T17:26:39.131Z,12.40
2022-10-30T17:29:05.921Z,12.40
2022-10-30T17:31:38.227Z,12.38
2022-10-30T17:34:10.581Z,12.35
2022-10-30T17:36:38.449Z,12.35
2022-10-30T17:39:05.848Z,12.34
2022-10-30T17:41:33.308Z,12.32
2022-10-30T17:44:01.404Z,12.32
2022-10-30T17:46:28.796Z,12.31
2022-10-30T17:48:57.756Z,12.29
2022-10-30T17:51:24.548Z,12.31
2022-10-30T17:53:52.212Z,12.31
2022-10-30T17:56:33.221Z,12.28
2022-10-30T17:58:59.934Z,12.26
2022-10-30T18:01:27.696Z,12.25
2022-10-30T18:03:55.682Z,12.26
2022-10-30T18:06:26.347Z,12.25
2022-10-30T18:08:53.620Z,12.23
2022-10-30T18:11:23.386Z,12.25
2022-10-30T18:13:51.693Z,12.25
2022-10-30T18:16:19.680Z,12.24
2022-10-30T18:18:46.677Z,12.23
2022-10-30T18:21:16.109Z,12.22
2022-10-30T18:23:58.004Z,12.20
2022-10-30T18:26:27.932Z,12.19
2022-10-30T18:28:55.142Z,12.17
2022-10-30T18:31:24.311Z,12.16
2022-10-30T18:33:51.162Z,12.15
2022-10-30T18:36:23.171Z,12.12
2022-10-30T18:38:50.429Z,12.10
2022-10-30T18:41:23.121Z,12.10
2022-10-30T18:43:50.080Z,12.09
2022-10-30T18:46:17.054Z,12.06
2022-10-30T18:48:44.699Z,12.06
2022-10-30T18:51:17.753Z,12.04
2022-10-30T18:53:54.053Z,12.02
2022-10-30T18:56:23.359Z,12.00
2022-10-30T18:58:54.851Z,11.98
2022-10-30T19:01:25.566Z,11.96
2022-10-30T19:03:52.598Z,11.93
2022-10-30T19:06:21.888Z,11.93
2022-10-30T19:08:49.278Z,11.93
2022-10-30T19:11:22.078Z,11.93
2022-10-30T19:13:51.559Z,11.93
2022-10-30T19:16:19.677Z,11.93
2022-10-30T19:18:47.559Z,11.93
2022-10-30T19:21:21.454Z,11.95
2022-10-30T19:23:48.498Z,11.96
2022-10-30T19:26:16.244Z,11.95
2022-10-30T19:28:43.960Z,11.93
2022-10-30T19:31:15.194Z,11.92
2022-10-30T19:33:42.037Z,11.91
2022-10-30T19:36:47.253Z,11.91
2022-10-30T19:39:16.924Z,11.89
2022-10-30T19:41:43.875Z,11.86
2022-10-30T19:44:10.700Z,11.84
2022-10-30T19:46:37.606Z,11.81
2022-10-30T19:49:23.159Z,11.83
2022-10-30T19:51:49.740Z,11.83
2022-10-30T19:54:16.328Z,11.82
2022-10-30T19:56:45.794Z,11.81
2022-10-30T19:59:14.669Z,11.79
2022-10-30T20:01:41.854Z,11.77
2022-10-30T20:04:08.796Z,11.76
2022-10-30T20:06:35.495Z,11.73
2022-10-30T20:09:02.649Z,11.73
2022-10-30T20:11:30.135Z,11.73
2022-10-30T20:13:56.802Z,11.73
2022-10-30T20:16:23.858Z,11.73
2022-10-30T20:18:50.956Z,11.77
2022-10-30T20:21:19.260Z,11.77
2022-10-30T20:23:46.123Z,11.79
2022-10-30T20:26:29.570Z,11.80
2022-10-30T20:28:56.356Z,11.76
2022-10-30T20:31:23.444Z,11.74
2022-10-30T20:33:50.081Z,11.72
2022-10-30T20:36:16.752Z,11.70
2022-10-30T20:38:43.339Z,11.66
2022-10-30T20:41:21.045Z,11.63
2022-10-30T20:43:50.046Z,11.61
2022-10-30T20:46:17.250Z,11.60
2022-10-30T20:48:44.010Z,11.59
2022-10-30T20:51:11.529Z,11.56
2022-10-30T20:53:38.275Z,11.54
2022-10-30T20:56:05.252Z,11.53
2022-10-30T20:58:31.926Z,11.51
2022-10-30T21:00:59.500Z,11.48
2022-10-30T21:03:26.981Z,11.46
2022-10-30T21:06:01.331Z,11.46
2022-10-30T21:08:31.405Z,11.49
2022-10-30T21:10:59.966Z,11.50
2022-10-30T21:13:27.249Z,11.53
2022-10-30T21:15:54.215Z,11.52
2022-10-30T21:18:21.882Z,11.50
2022-10-30T21:20:48.489Z,11.49
2022-10-30T21:23:15.199Z,11.46
2022-10-30T21:25:41.836Z,11.45
2022-10-30T21:28:08.441Z,11.41
2022-10-30T21:30:35.061Z,11.38
2022-10-30T21:33:02.123Z,11.33
2022-10-30T21:35:28.956Z,11.30
2022-10-30T21:37:55.805Z,11.28
2022-10-30T21:40:22.528Z,11.23
2022-10-30T21:42:49.235Z,11.20
2022-10-30T21:45:16.176Z,11.16
2022-10-30T21:47:42.797Z,11.14
2022-10-30T21:50:12.527Z,11.11
2022-10-30T21:52:40.407Z,11.10
2022-10-30T21:55:08.124Z,11.08
2022-10-30T21:57:35.246Z,11.06
2022-10-30T22:00:05.864Z,11.06
2022-10-30T22:02:34.290Z,11.08
2022-10-30T22:05:00.894Z,11.13
2022-10-30T22:07:27.515Z,11.17
2022-10-30T22:09:54.178Z,11.23
2022-10-30T22:12:21.496Z,11.28
2022-10-30T22:14:50.048Z,11.34
2022-10-30T22:17:16.688Z,11.35
2022-10-30T22:19:43.313Z,11.36
2022-10-30T22:22:11.262Z,11.36
2022-10-30T22:24:38.464Z,11.34
2022-10-30T22:27:05.418Z,11.34
2022-10-30T22:29:32.103Z,11.36
2022-10-30T22:31:59.755Z,11.36
2022-10-30T22:34:26.375Z,11.37
2022-10-30T22:36:52.997Z,11.40
2022-10-30T22:39:19.647Z,11.43
2022-10-30T22:41:46.375Z,11.48
2022-10-30T22:44:17.603Z,11.53
2022-10-30T22:46:44.643Z,11.59
2022-10-30T22:49:11.842Z,11.63
2022-10-30T22:51:39.568Z,11.68
2022-10-30T22:54:08.269Z,11.73
2022-10-30T22:56:36.369Z,11.78
2022-10-30T22:59:06.027Z,11.83
2022-10-30T23:01:35.106Z,11.86
2022-10-30T23:04:04.536Z,11.91
2022-10-30T23:06:31.815Z,11.93
2022-10-30T23:09:00.212Z,11.96
2022-10-30T23:11:27.884Z,11.96
2022-10-30T23:13:54.941Z,11.94
2022-10-30T23:16:23.480Z,11.88
2022-10-30T23:18:51.995Z,11.85
2022-10-30T23:21:22.883Z,11.82
2022-10-30T23:23:51.176Z,11.79
2022-10-30T23:26:19.142Z,11.78
2022-10-30T23:28:47.800Z,11.77
2022-10-30T23:31:36.133Z,11.76
2022-10-30T23:34:05.719Z,11.72
2022-10-30T23:36:32.700Z,11.69
2022-10-30T23:39:01.514Z,11.66
2022-10-30T23:41:30.643Z,11.66
2022-10-30T23:43:59.836Z,11.65
2022-10-30T23:46:26.765Z,11.65
2022-10-30T23:48:53.826Z,11.66
2022-10-30T23:51:20.658Z,11.69
2022-10-30T23:53:47.855Z,11.69
2022-10-30T23:56:14.878Z,11.70
2022-10-30T23:58:48.714Z,11.72
